Bangor (BGR/KBGR)

Map

Destinations

Information

Location
Bangor, Maine
Local Time
19:24 / 7:24 pm
GMT Time
00:24 / 12:24 am
Gates
Unassigned
No FAA reported delays
METAR KBGR 222353Z 22004KT 10SM FEW120 SCT250 04/M02 A2989 RMK AO2 SLP122 4/015 T00391022 10083 20022 53002
TAF KBGR 222336Z 2300/2324 VRB03KT P6SM BKN200 FM231200 18006KT P6SM BKN040 FM231800 18008KT P6SM BKN025 FM232100 21010KT P6SM BKN015
  • No charts available